sensor_id;sensor_type;location;lat;lon;timestamp;pressure;altitude;pressure_sealevel;temperature
15607;BMP180;7865;50.918;4.510;2023-03-23T00:04:28;99760.00;;;12.60
15607;BMP180;7865;50.918;4.510;2023-03-23T00:09:32;99767.00;;;12.60
15607;BMP180;7865;50.918;4.510;2023-03-23T00:14:35;99748.00;;;12.60
15607;BMP180;7865;50.918;4.510;2023-03-23T00:19:41;99738.00;;;12.60
15607;BMP180;7865;50.918;4.510;2023-03-23T00:24:48;99730.00;;;12.60
15607;BMP180;7865;50.918;4.510;2023-03-23T00:29:52;99735.00;;;12.60
15607;BMP180;7865;50.918;4.510;2023-03-23T00:34:54;99737.00;;;12.60
15607;BMP180;7865;50.918;4.510;2023-03-23T00:39:56;99738.00;;;12.60
15607;BMP180;7865;50.918;4.510;2023-03-23T00:44:57;99732.00;;;12.60
15607;BMP180;7865;50.918;4.510;2023-03-23T00:50:03;99725.00;;;12.60
15607;BMP180;7865;50.918;4.510;2023-03-23T00:55:06;99747.00;;;12.60
15607;BMP180;7865;50.918;4.510;2023-03-23T01:00:08;99719.00;;;12.60
15607;BMP180;7865;50.918;4.510;2023-03-23T01:05:12;99747.00;;;12.70
15607;BMP180;7865;50.918;4.510;2023-03-23T01:10:14;99746.00;;;12.70
15607;BMP180;7865;50.918;4.510;2023-03-23T01:15:19;99752.00;;;12.80
15607;BMP180;7865;50.918;4.510;2023-03-23T01:20:20;99753.00;;;12.80
15607;BMP180;7865;50.918;4.510;2023-03-23T01:25:22;99756.00;;;12.70
15607;BMP180;7865;50.918;4.510;2023-03-23T01:30:23;99756.00;;;12.80
15607;BMP180;7865;50.918;4.510;2023-03-23T01:35:24;99742.00;;;12.80
15607;BMP180;7865;50.918;4.510;2023-03-23T01:40:27;99721.00;;;12.80
15607;BMP180;7865;50.918;4.510;2023-03-23T01:45:32;99707.00;;;12.70
15607;BMP180;7865;50.918;4.510;2023-03-23T01:50:40;99702.00;;;12.70
15607;BMP180;7865;50.918;4.510;2023-03-23T01:55:44;99700.00;;;12.70
15607;BMP180;7865;50.918;4.510;2023-03-23T02:00:49;99701.00;;;12.70
15607;BMP180;7865;50.918;4.510;2023-03-23T02:05:51;99702.00;;;12.70
15607;BMP180;7865;50.918;4.510;2023-03-23T02:11:01;99710.00;;;12.70
15607;BMP180;7865;50.918;4.510;2023-03-23T02:16:28;99714.00;;;12.70
15607;BMP180;7865;50.918;4.510;2023-03-23T02:38:15;99705.00;;;12.70
15607;BMP180;7865;50.918;4.510;2023-03-23T02:43:20;99713.00;;;12.70
15607;BMP180;7865;50.918;4.510;2023-03-23T02:48:28;99724.00;;;12.60
15607;BMP180;7865;50.918;4.510;2023-03-23T02:53:34;99711.00;;;12.60
15607;BMP180;7865;50.918;4.510;2023-03-23T02:58:37;99721.00;;;12.60
15607;BMP180;7865;50.918;4.510;2023-03-23T03:03:38;99713.00;;;12.60
15607;BMP180;7865;50.918;4.510;2023-03-23T03:08:45;99712.00;;;12.50
15607;BMP180;7865;50.918;4.510;2023-03-23T03:14:10;99726.00;;;12.60
15607;BMP180;7865;50.918;4.510;2023-03-23T03:24:29;99708.00;;;12.50
15607;BMP180;7865;50.918;4.510;2023-03-23T03:29:37;99706.00;;;12.50
15607;BMP180;7865;50.918;4.510;2023-03-23T03:34:41;99720.00;;;12.60
15607;BMP180;7865;50.918;4.510;2023-03-23T03:39:43;99717.00;;;12.60
15607;BMP180;7865;50.918;4.510;2023-03-23T03:44:45;99715.00;;;12.60
15607;BMP180;7865;50.918;4.510;2023-03-23T03:49:47;99716.00;;;12.60
15607;BMP180;7865;50.918;4.510;2023-03-23T03:54:48;99719.00;;;12.70
15607;BMP180;7865;50.918;4.510;2023-03-23T03:59:49;99720.00;;;12.70
15607;BMP180;7865;50.918;4.510;2023-03-23T04:05:10;99715.00;;;12.60
15607;BMP180;7865;50.918;4.510;2023-03-23T04:10:12;99730.00;;;12.60
15607;BMP180;7865;50.918;4.510;2023-03-23T04:15:16;99724.00;;;12.70
15607;BMP180;7865;50.918;4.510;2023-03-23T04:20:18;99725.00;;;12.70
15607;BMP180;7865;50.918;4.510;2023-03-23T04:25:23;99723.00;;;12.70
15607;BMP180;7865;50.918;4.510;2023-03-23T04:30:27;99738.00;;;12.60
15607;BMP180;7865;50.918;4.510;2023-03-23T04:35:43;99739.00;;;12.50
15607;BMP180;7865;50.918;4.510;2023-03-23T04:41:04;99757.00;;;12.50
15607;BMP180;7865;50.918;4.510;2023-03-23T04:46:37;99750.00;;;12.50
15607;BMP180;7865;50.918;4.510;2023-03-23T04:51:45;99743.00;;;12.60
15607;BMP180;7865;50.918;4.510;2023-03-23T04:57:04;99740.00;;;12.50
15607;BMP180;7865;50.918;4.510;2023-03-23T05:02:07;99743.00;;;12.40
15607;BMP180;7865;50.918;4.510;2023-03-23T05:07:11;99744.00;;;12.30
15607;BMP180;7865;50.918;4.510;2023-03-23T05:12:17;99749.00;;;12.20
15607;BMP180;7865;50.918;4.510;2023-03-23T05:17:39;99740.00;;;12.20
15607;BMP180;7865;50.918;4.510;2023-03-23T05:22:48;99744.00;;;12.20
15607;BMP180;7865;50.918;4.510;2023-03-23T05:27:53;99750.00;;;12.30
15607;BMP180;7865;50.918;4.510;2023-03-23T05:33:10;99750.00;;;12.30
15607;BMP180;7865;50.918;4.510;2023-03-23T05:38:25;99752.00;;;12.30
15607;BMP180;7865;50.918;4.510;2023-03-23T05:43:27;99755.00;;;12.30
15607;BMP180;7865;50.918;4.510;2023-03-23T05:48:54;99744.00;;;12.20
15607;BMP180;7865;50.918;4.510;2023-03-23T05:54:00;99765.00;;;12.30
15607;BMP180;7865;50.918;4.510;2023-03-23T05:59:02;99752.00;;;12.30
15607;BMP180;7865;50.918;4.510;2023-03-23T06:04:07;99755.00;;;12.30
15607;BMP180;7865;50.918;4.510;2023-03-23T06:09:19;99768.00;;;12.30
15607;BMP180;7865;50.918;4.510;2023-03-23T06:14:38;99764.00;;;12.40
15607;BMP180;7865;50.918;4.510;2023-03-23T06:19:41;99766.00;;;12.50
15607;BMP180;7865;50.918;4.510;2023-03-23T06:24:46;99778.00;;;12.50
15607;BMP180;7865;50.918;4.510;2023-03-23T06:29:54;99783.00;;;12.60
15607;BMP180;7865;50.918;4.510;2023-03-23T06:34:56;99795.00;;;12.70
15607;BMP180;7865;50.918;4.510;2023-03-23T06:40:17;99789.00;;;12.80
15607;BMP180;7865;50.918;4.510;2023-03-23T06:45:29;99788.00;;;12.90
15607;BMP180;7865;50.918;4.510;2023-03-23T06:50:51;99801.00;;;12.90
15607;BMP180;7865;50.918;4.510;2023-03-23T06:55:54;99829.00;;;12.70
15607;BMP180;7865;50.918;4.510;2023-03-23T07:00:56;99834.00;;;12.20
15607;BMP180;7865;50.918;4.510;2023-03-23T07:06:06;99863.00;;;11.40
15607;BMP180;7865;50.918;4.510;2023-03-23T07:11:12;99887.00;;;10.40
15607;BMP180;7865;50.918;4.510;2023-03-23T07:16:14;99886.00;;;10.00
15607;BMP180;7865;50.918;4.510;2023-03-23T07:21:15;99877.00;;;9.70
15607;BMP180;7865;50.918;4.510;2023-03-23T07:26:17;99882.00;;;9.60
15607;BMP180;7865;50.918;4.510;2023-03-23T07:31:25;99880.00;;;9.40
15607;BMP180;7865;50.918;4.510;2023-03-23T07:36:29;99864.00;;;9.40
15607;BMP180;7865;50.918;4.510;2023-03-23T07:41:30;99872.00;;;9.40
15607;BMP180;7865;50.918;4.510;2023-03-23T07:46:33;99883.00;;;9.50
15607;BMP180;7865;50.918;4.510;2023-03-23T07:51:49;99881.00;;;9.80
15607;BMP180;7865;50.918;4.510;2023-03-23T07:56:51;99893.00;;;9.90
15607;BMP180;7865;50.918;4.510;2023-03-23T08:01:57;99883.00;;;10.20
15607;BMP180;7865;50.918;4.510;2023-03-23T08:07:07;99871.00;;;10.60
15607;BMP180;7865;50.918;4.510;2023-03-23T08:12:23;99899.00;;;11.00
15607;BMP180;7865;50.918;4.510;2023-03-23T08:17:45;99916.00;;;11.40
15607;BMP180;7865;50.918;4.510;2023-03-23T08:23:06;99915.00;;;11.40
15607;BMP180;7865;50.918;4.510;2023-03-23T08:28:10;99922.00;;;11.20
15607;BMP180;7865;50.918;4.510;2023-03-23T08:33:29;99941.00;;;11.00
15607;BMP180;7865;50.918;4.510;2023-03-23T08:38:54;99933.00;;;10.80
15607;BMP180;7865;50.918;4.510;2023-03-23T08:44:10;99928.00;;;10.70
15607;BMP180;7865;50.918;4.510;2023-03-23T08:49:42;99929.00;;;11.00
15607;BMP180;7865;50.918;4.510;2023-03-23T08:54:59;99909.00;;;11.10
15607;BMP180;7865;50.918;4.510;2023-03-23T09:00:08;99919.00;;;11.20
15607;BMP180;7865;50.918;4.510;2023-03-23T09:05:39;99924.00;;;11.60
15607;BMP180;7865;50.918;4.510;2023-03-23T09:11:02;99927.00;;;11.90
15607;BMP180;7865;50.918;4.510;2023-03-23T09:16:04;99945.00;;;12.00
15607;BMP180;7865;50.918;4.510;2023-03-23T09:21:06;99945.00;;;12.00
15607;BMP180;7865;50.918;4.510;2023-03-23T09:26:07;99942.00;;;11.90
15607;BMP180;7865;50.918;4.510;2023-03-23T09:31:08;99944.00;;;12.10
15607;BMP180;7865;50.918;4.510;2023-03-23T09:36:09;99934.00;;;12.10
15607;BMP180;7865;50.918;4.510;2023-03-23T09:41:40;99935.00;;;12.40
15607;BMP180;7865;50.918;4.510;2023-03-23T09:46:52;99932.00;;;13.20
15607;BMP180;7865;50.918;4.510;2023-03-23T09:52:10;99929.00;;;13.80
15607;BMP180;7865;50.918;4.510;2023-03-23T09:57:37;99933.00;;;14.20
15607;BMP180;7865;50.918;4.510;2023-03-23T10:03:01;99938.00;;;14.50
15607;BMP180;7865;50.918;4.510;2023-03-23T10:08:17;99944.00;;;15.00
15607;BMP180;7865;50.918;4.510;2023-03-23T10:13:33;99928.00;;;15.40
15607;BMP180;7865;50.918;4.510;2023-03-23T10:24:33;99926.00;;;16.00
15607;BMP180;7865;50.918;4.510;2023-03-23T10:29:42;99922.00;;;16.20
15607;BMP180;7865;50.918;4.510;2023-03-23T10:34:49;99925.00;;;16.40
15607;BMP180;7865;50.918;4.510;2023-03-23T10:39:56;99942.00;;;16.70
15607;BMP180;7865;50.918;4.510;2023-03-23T10:45:15;99941.00;;;17.20
15607;BMP180;7865;50.918;4.510;2023-03-23T10:50:24;99934.00;;;17.30
15607;BMP180;7865;50.918;4.510;2023-03-23T10:55:39;99929.00;;;17.40
15607;BMP180;7865;50.918;4.510;2023-03-23T11:00:44;99941.00;;;17.80
15607;BMP180;7865;50.918;4.510;2023-03-23T11:05:50;99937.00;;;17.50
15607;BMP180;7865;50.918;4.510;2023-03-23T11:10:56;99931.00;;;18.10
15607;BMP180;7865;50.918;4.510;2023-03-23T11:15:58;99953.00;;;18.80
15607;BMP180;7865;50.918;4.510;2023-03-23T11:21:00;99938.00;;;18.70
15607;BMP180;7865;50.918;4.510;2023-03-23T11:26:10;99912.00;;;18.60
15607;BMP180;7865;50.918;4.510;2023-03-23T11:31:13;99925.00;;;17.80
15607;BMP180;7865;50.918;4.510;2023-03-23T11:36:14;99942.00;;;17.40
15607;BMP180;7865;50.918;4.510;2023-03-23T11:41:18;99924.00;;;17.20
15607;BMP180;7865;50.918;4.510;2023-03-23T11:46:29;99903.00;;;17.30
15607;BMP180;7865;50.918;4.510;2023-03-23T11:51:38;99885.00;;;19.00
15607;BMP180;7865;50.918;4.510;2023-03-23T11:56:43;99887.00;;;19.40
15607;BMP180;7865;50.918;4.510;2023-03-23T12:02:08;99898.00;;;18.90
15607;BMP180;7865;50.918;4.510;2023-03-23T12:23:21;99894.00;;;19.00
15607;BMP180;7865;50.918;4.510;2023-03-23T12:44:35;99859.00;;;20.10
15607;BMP180;7865;50.918;4.510;2023-03-23T12:49:45;99865.00;;;20.20
15607;BMP180;7865;50.918;4.510;2023-03-23T12:54:56;99873.00;;;20.40
15607;BMP180;7865;50.918;4.510;2023-03-23T13:00:17;99889.00;;;20.30
15607;BMP180;7865;50.918;4.510;2023-03-23T13:10:29;99926.00;;;17.90
15607;BMP180;7865;50.918;4.510;2023-03-23T13:15:40;99933.00;;;17.50
15607;BMP180;7865;50.918;4.510;2023-03-23T13:20:51;99923.00;;;17.90
15607;BMP180;7865;50.918;4.510;2023-03-23T13:31:11;99866.00;;;19.70
15607;BMP180;7865;50.918;4.510;2023-03-23T13:36:14;99849.00;;;22.30
15607;BMP180;7865;50.918;4.510;2023-03-23T13:41:18;99824.00;;;22.90
15607;BMP180;7865;50.918;4.510;2023-03-23T13:56:39;99884.00;;;20.10
15607;BMP180;7865;50.918;4.510;2023-03-23T14:01:43;99875.00;;;18.70
15607;BMP180;7865;50.918;4.510;2023-03-23T14:06:46;99850.00;;;18.30
15607;BMP180;7865;50.918;4.510;2023-03-23T14:11:59;99790.00;;;20.20
15607;BMP180;7865;50.918;4.510;2023-03-23T14:17:30;99829.00;;;21.00
15607;BMP180;7865;50.918;4.510;2023-03-23T14:22:36;99775.00;;;21.40
15607;BMP180;7865;50.918;4.510;2023-03-23T14:27:37;99770.00;;;24.20
15607;BMP180;7865;50.918;4.510;2023-03-23T14:32:38;99812.00;;;23.40
15607;BMP180;7865;50.918;4.510;2023-03-23T14:37:39;99821.00;;;23.10
15607;BMP180;7865;50.918;4.510;2023-03-23T14:42:41;99811.00;;;20.20
15607;BMP180;7865;50.918;4.510;2023-03-23T14:47:46;99812.00;;;18.50
15607;BMP180;7865;50.918;4.510;2023-03-23T14:52:48;99829.00;;;17.20
15607;BMP180;7865;50.918;4.510;2023-03-23T14:57:50;99818.00;;;16.00
15607;BMP180;7865;50.918;4.510;2023-03-23T15:02:53;99785.00;;;18.70
15607;BMP180;7865;50.918;4.510;2023-03-23T15:08:02;99775.00;;;19.90
15607;BMP180;7865;50.918;4.510;2023-03-23T15:13:03;99770.00;;;18.90
15607;BMP180;7865;50.918;4.510;2023-03-23T15:18:05;99773.00;;;19.70
15607;BMP180;7865;50.918;4.510;2023-03-23T15:23:07;99775.00;;;18.40
15607;BMP180;7865;50.918;4.510;2023-03-23T15:28:20;99777.00;;;17.30
15607;BMP180;7865;50.918;4.510;2023-03-23T15:33:22;99792.00;;;17.80
15607;BMP180;7865;50.918;4.510;2023-03-23T15:38:32;99795.00;;;17.20
15607;BMP180;7865;50.918;4.510;2023-03-23T15:43:35;99783.00;;;17.30
15607;BMP180;7865;50.918;4.510;2023-03-23T15:53:55;99788.00;;;16.10
15607;BMP180;7865;50.918;4.510;2023-03-23T15:58:57;99795.00;;;15.70
15607;BMP180;7865;50.918;4.510;2023-03-23T16:04:04;99793.00;;;15.30
15607;BMP180;7865;50.918;4.510;2023-03-23T16:09:13;99790.00;;;15.50
15607;BMP180;7865;50.918;4.510;2023-03-23T16:14:16;99783.00;;;15.70
15607;BMP180;7865;50.918;4.510;2023-03-23T16:19:18;99782.00;;;16.00
15607;BMP180;7865;50.918;4.510;2023-03-23T16:24:24;99780.00;;;16.00
15607;BMP180;7865;50.918;4.510;2023-03-23T16:29:27;99780.00;;;16.50
15607;BMP180;7865;50.918;4.510;2023-03-23T16:34:49;99775.00;;;16.60
15607;BMP180;7865;50.918;4.510;2023-03-23T16:39:51;99772.00;;;16.70
15607;BMP180;7865;50.918;4.510;2023-03-23T16:44:53;99768.00;;;16.10
15607;BMP180;7865;50.918;4.510;2023-03-23T16:49:55;99779.00;;;15.60
15607;BMP180;7865;50.918;4.510;2023-03-23T16:54:57;99780.00;;;15.30
15607;BMP180;7865;50.918;4.510;2023-03-23T16:59:59;99780.00;;;15.20
15607;BMP180;7865;50.918;4.510;2023-03-23T17:05:02;99779.00;;;15.10
15607;BMP180;7865;50.918;4.510;2023-03-23T17:10:06;99775.00;;;15.00
15607;BMP180;7865;50.918;4.510;2023-03-23T17:15:09;99778.00;;;14.80
15607;BMP180;7865;50.918;4.510;2023-03-23T17:20:12;99760.00;;;14.70
15607;BMP180;7865;50.918;4.510;2023-03-23T17:25:14;99752.00;;;14.60
15607;BMP180;7865;50.918;4.510;2023-03-23T17:30:17;99748.00;;;14.70
15607;BMP180;7865;50.918;4.510;2023-03-23T17:35:19;99740.00;;;14.60
15607;BMP180;7865;50.918;4.510;2023-03-23T17:40:22;99744.00;;;14.60
15607;BMP180;7865;50.918;4.510;2023-03-23T17:45:24;99735.00;;;14.60
15607;BMP180;7865;50.918;4.510;2023-03-23T17:50:26;99737.00;;;14.60
15607;BMP180;7865;50.918;4.510;2023-03-23T17:55:28;99739.00;;;14.50
15607;BMP180;7865;50.918;4.510;2023-03-23T18:00:30;99730.00;;;14.50
15607;BMP180;7865;50.918;4.510;2023-03-23T18:05:33;99728.00;;;14.50
15607;BMP180;7865;50.918;4.510;2023-03-23T18:10:38;99725.00;;;14.50
15607;BMP180;7865;50.918;4.510;2023-03-23T18:15:42;99728.00;;;14.50
15607;BMP180;7865;50.918;4.510;2023-03-23T18:20:55;99710.00;;;14.50
15607;BMP180;7865;50.918;4.510;2023-03-23T18:25:57;99711.00;;;14.50
15607;BMP180;7865;50.918;4.510;2023-03-23T18:31:12;99704.00;;;14.60
15607;BMP180;7865;50.918;4.510;2023-03-23T18:36:16;99709.00;;;14.50
15607;BMP180;7865;50.918;4.510;2023-03-23T18:41:19;99705.00;;;14.50
15607;BMP180;7865;50.918;4.510;2023-03-23T18:46:21;99710.00;;;14.40
15607;BMP180;7865;50.918;4.510;2023-03-23T18:51:23;99700.00;;;14.00
15607;BMP180;7865;50.918;4.510;2023-03-23T18:56:26;99691.00;;;13.80
15607;BMP180;7865;50.918;4.510;2023-03-23T19:01:29;99693.00;;;13.50
15607;BMP180;7865;50.918;4.510;2023-03-23T19:06:31;99693.00;;;13.30
15607;BMP180;7865;50.918;4.510;2023-03-23T19:11:34;99690.00;;;13.20
15607;BMP180;7865;50.918;4.510;2023-03-23T19:16:36;99690.00;;;13.10
15607;BMP180;7865;50.918;4.510;2023-03-23T19:21:39;99687.00;;;13.10
15607;BMP180;7865;50.918;4.510;2023-03-23T19:26:42;99679.00;;;13.10
15607;BMP180;7865;50.918;4.510;2023-03-23T19:31:45;99691.00;;;13.10
15607;BMP180;7865;50.918;4.510;2023-03-23T19:36:48;99665.00;;;13.20
15607;BMP180;7865;50.918;4.510;2023-03-23T19:42:04;99680.00;;;13.20
15607;BMP180;7865;50.918;4.510;2023-03-23T19:47:06;99676.00;;;13.30
15607;BMP180;7865;50.918;4.510;2023-03-23T19:52:09;99676.00;;;13.30
15607;BMP180;7865;50.918;4.510;2023-03-23T19:57:16;99669.00;;;13.20
15607;BMP180;7865;50.918;4.510;2023-03-23T20:02:19;99653.00;;;13.20
15607;BMP180;7865;50.918;4.510;2023-03-23T20:07:21;99653.00;;;13.30
15607;BMP180;7865;50.918;4.510;2023-03-23T20:12:27;99642.00;;;13.20
15607;BMP180;7865;50.918;4.510;2023-03-23T20:17:29;99644.00;;;13.30
15607;BMP180;7865;50.918;4.510;2023-03-23T20:22:33;99637.00;;;13.20
15607;BMP180;7865;50.918;4.510;2023-03-23T20:27:35;99631.00;;;13.10
15607;BMP180;7865;50.918;4.510;2023-03-23T20:32:39;99631.00;;;12.90
15607;BMP180;7865;50.918;4.510;2023-03-23T20:37:41;99634.00;;;12.70
15607;BMP180;7865;50.918;4.510;2023-03-23T20:42:44;99624.00;;;12.60
15607;BMP180;7865;50.918;4.510;2023-03-23T20:47:46;99637.00;;;12.30
15607;BMP180;7865;50.918;4.510;2023-03-23T20:52:48;99633.00;;;12.10
15607;BMP180;7865;50.918;4.510;2023-03-23T20:57:50;99634.00;;;11.90
15607;BMP180;7865;50.918;4.510;2023-03-23T21:02:52;99618.00;;;11.70
15607;BMP180;7865;50.918;4.510;2023-03-23T21:07:54;99617.00;;;11.60
15607;BMP180;7865;50.918;4.510;2023-03-23T21:12:59;99599.00;;;11.50
15607;BMP180;7865;50.918;4.510;2023-03-23T21:18:01;99601.00;;;11.50
15607;BMP180;7865;50.918;4.510;2023-03-23T21:23:04;99581.00;;;11.40
15607;BMP180;7865;50.918;4.510;2023-03-23T21:28:07;99576.00;;;11.40
15607;BMP180;7865;50.918;4.510;2023-03-23T21:33:14;99561.00;;;11.40
15607;BMP180;7865;50.918;4.510;2023-03-23T21:38:16;99551.00;;;11.30
15607;BMP180;7865;50.918;4.510;2023-03-23T21:43:21;99534.00;;;11.30
15607;BMP180;7865;50.918;4.510;2023-03-23T21:48:28;99528.00;;;11.30
15607;BMP180;7865;50.918;4.510;2023-03-23T21:53:30;99525.00;;;11.30
15607;BMP180;7865;50.918;4.510;2023-03-23T21:58:35;99526.00;;;11.40
15607;BMP180;7865;50.918;4.510;2023-03-23T22:03:39;99525.00;;;11.40
15607;BMP180;7865;50.918;4.510;2023-03-23T22:08:43;99495.00;;;11.50
15607;BMP180;7865;50.918;4.510;2023-03-23T22:13:46;99485.00;;;11.50
15607;BMP180;7865;50.918;4.510;2023-03-23T22:18:51;99479.00;;;11.60
15607;BMP180;7865;50.918;4.510;2023-03-23T22:23:57;99472.00;;;11.60
15607;BMP180;7865;50.918;4.510;2023-03-23T22:29:00;99480.00;;;11.60
15607;BMP180;7865;50.918;4.510;2023-03-23T22:34:02;99467.00;;;11.70
15607;BMP180;7865;50.918;4.510;2023-03-23T22:39:05;99475.00;;;11.70
15607;BMP180;7865;50.918;4.510;2023-03-23T22:44:14;99460.00;;;11.60
15607;BMP180;7865;50.918;4.510;2023-03-23T22:49:18;99456.00;;;11.60
15607;BMP180;7865;50.918;4.510;2023-03-23T22:54:21;99447.00;;;11.50
15607;BMP180;7865;50.918;4.510;2023-03-23T22:59:23;99426.00;;;11.50
15607;BMP180;7865;50.918;4.510;2023-03-23T23:04:24;99427.00;;;11.50
15607;BMP180;7865;50.918;4.510;2023-03-23T23:09:27;99419.00;;;11.60
15607;BMP180;7865;50.918;4.510;2023-03-23T23:14:29;99416.00;;;11.60
15607;BMP180;7865;50.918;4.510;2023-03-23T23:19:31;99405.00;;;11.60
15607;BMP180;7865;50.918;4.510;2023-03-23T23:24:33;99397.00;;;11.60
15607;BMP180;7865;50.918;4.510;2023-03-23T23:29:35;99393.00;;;11.60
15607;BMP180;7865;50.918;4.510;2023-03-23T23:34:37;99375.00;;;11.60
15607;BMP180;7865;50.918;4.510;2023-03-23T23:39:40;99381.00;;;11.60
15607;BMP180;7865;50.918;4.510;2023-03-23T23:44:43;99358.00;;;11.60
15607;BMP180;7865;50.918;4.510;2023-03-23T23:49:47;99358.00;;;11.60
15607;BMP180;7865;50.918;4.510;2023-03-23T23:54:49;99343.00;;;11.60
15607;BMP180;7865;50.918;4.510;2023-03-23T23:59:53;99335.00;;;11.70
